Terminal Aerodrome Forecast
Issued by NWS

Home | Current Version | Previous Version | Text Only | Print | Product List | Glossary On
Versions: 1 2 3 4 5 6 7 8 9 10 11 12 13 14 15 16 17 18
000
FTUS44 KLZK 282320
TAFLIT
TAF
KLIT 282320Z 2900/2924 21007KT P6SM VCTS SCT040CB BKN250
      TEMPO 2900/2902 05010G20KT
     FM290400 21003KT P6SM FEW040 SCT100
     FM291300 24005KT P6SM VCTS SCT050CB=

USA.gov is the U.S. government's official web portal to all federal, state and local government web resources and services.